Time;durP1;ratioP1;P1;durP2;ratioP2;P2;SDS_P1;SDS_P2;PMS_P1;PMS_P2;Temp;Humidity;BMP_temperature;BMP_pressure;BME280_temperature;BME280_humidity;BME280_pressure;Samples;Min_cycle;Max_cycle;Signal;HPM_P1;HPM_P2
2023/07/03 01:48:19;;;;;;;4.65;2.60;;;23.90;96.70;;;;;;4990594;28;20974;-71
2023/07/03 01:50:48;;;;;;;5.13;2.53;;;23.90;96.70;;;;;;4981340;28;20038;-72
2023/07/03 01:53:23;;;;;;;3.70;2.20;;;23.80;96.70;;;;;;4973695;28;20496;-72
2023/07/03 01:55:58;;;;;;;3.78;2.63;;;23.80;96.70;;;;;;4983182;28;20050;-72
2023/07/03 02:14:34;;;;;;;4.80;2.53;;;23.60;96.70;;;;;;4973244;28;20614;-73
2023/07/03 02:17:06;;;;;;;6.10;2.70;;;23.60;96.70;;;;;;4967647;28;20073;-73
2023/07/03 02:19:35;;;;;;;3.92;2.42;;;23.70;96.70;;;;;;4983187;28;20510;-73
2023/07/03 02:22:04;;;;;;;2.88;2.03;;;23.60;96.70;;;;;;4957941;28;20126;-73
2023/07/03 03:32:05;;;;;;;5.38;2.90;;;23.30;96.70;;;;;;4989443;28;20088;-70
2023/07/03 03:34:34;;;;;;;4.18;2.67;;;23.20;96.70;;;;;;5004219;28;20361;-70
2023/07/03 03:37:02;;;;;;;4.78;2.80;;;23.30;96.70;;;;;;5005299;28;20215;-71
2023/07/03 03:39:30;;;;;;;6.93;2.60;;;23.20;96.70;;;;;;5021132;28;20077;-71
2023/07/03 03:41:59;;;;;;;4.20;2.40;;;23.20;96.70;;;;;;5005035;28;20052;-71
2023/07/03 03:44:27;;;;;;;4.95;2.90;;;23.10;96.70;;;;;;5002882;28;20050;-70
2023/07/03 04:29:08;;;;;;;4.72;3.13;;;23.20;96.70;;;;;;5008950;28;20061;-70
2023/07/03 04:31:37;;;;;;;4.15;2.47;;;23.30;96.70;;;;;;5009856;28;20128;-70
2023/07/03 04:34:05;;;;;;;4.57;2.88;;;23.30;96.70;;;;;;5019738;28;20111;-70
2023/07/03 04:36:34;;;;;;;6.28;2.70;;;23.30;96.70;;;;;;5008239;28;20045;-70
2023/07/03 04:39:02;;;;;;;4.43;3.08;;;23.30;96.70;;;;;;4997723;28;20137;-71
2023/07/03 04:41:31;;;;;;;7.82;3.03;;;23.30;96.70;;;;;;5015890;28;20096;-71
2023/07/03 04:44:00;;;;;;;5.05;2.70;;;23.20;96.70;;;;;;5011613;28;20046;-70
2023/07/03 04:46:31;;;;;;;3.53;2.35;;;23.20;96.70;;;;;;5022327;28;21356;-71
2023/07/03 04:49:03;;;;;;;5.63;2.80;;;23.30;96.70;;;;;;5020975;28;20103;-70
2023/07/03 04:51:32;;;;;;;5.10;2.88;;;23.30;96.70;;;;;;5019212;28;20486;-71
2023/07/03 04:54:01;;;;;;;4.93;2.97;;;23.30;96.70;;;;;;5004339;28;20120;-71
2023/07/03 04:56:30;;;;;;;4.65;2.83;;;23.20;96.70;;;;;;5015864;28;20052;-70
2023/07/03 04:58:59;;;;;;;4.72;2.83;;;23.30;96.70;;;;;;5022520;28;20057;-71
2023/07/03 05:01:29;;;;;;;5.20;2.55;;;23.30;96.70;;;;;;5021049;28;20047;-70
2023/07/03 05:04:00;;;;;;;5.40;2.67;;;23.30;96.70;;;;;;5001102;28;20045;-70
2023/07/03 05:06:28;;;;;;;6.00;2.70;;;23.30;96.70;;;;;;5016856;28;20057;-71
2023/07/03 05:08:56;;;;;;;5.90;2.75;;;23.40;96.70;;;;;;5020209;28;20125;-71
2023/07/03 05:11:24;;;;;;;4.63;2.67;;;23.30;96.70;;;;;;5017431;28;20495;-71
2023/07/03 05:13:52;;;;;;;5.50;2.83;;;23.30;96.70;;;;;;5021399;28;20056;-70
2023/07/03 05:33:10;;;;;;;5.25;2.75;;;23.70;96.70;;;;;;5013169;28;20084;-70
2023/07/03 05:35:38;;;;;;;6.45;2.80;;;23.70;96.70;;;;;;5024990;28;20046;-71
2023/07/03 05:38:17;;;;;;;7.22;2.85;;;23.70;96.70;;;;;;5015317;28;20104;-70
2023/07/03 05:40:46;;;;;;;5.88;3.10;;;23.80;96.70;;;;;;5024836;28;20056;-71
2023/07/03 05:43:14;;;;;;;5.03;2.33;;;23.80;96.70;;;;;;5025317;28;20052;-70
2023/07/03 05:45:42;;;;;;;5.68;3.00;;;24.00;96.70;;;;;;5007212;28;20392;-71
2023/07/03 05:48:11;;;;;;;7.80;3.03;;;23.90;96.70;;;;;;5006679;28;20052;-71
2023/07/03 05:51:16;;;;;;;5.75;2.72;;;24.00;96.70;;;;;;5023155;28;20049;-70
2023/07/03 05:53:44;;;;;;;6.35;2.85;;;24.00;96.70;;;;;;5025021;28;20053;-71
2023/07/03 05:56:13;;;;;;;6.50;2.95;;;24.10;96.70;;;;;;5024370;28;20128;-71
2023/07/03 05:58:41;;;;;;;3.90;2.40;;;24.20;96.70;;;;;;5000017;28;20050;-72
2023/07/03 06:01:09;;;;;;;4.05;2.85;;;24.20;96.70;;;;;;5019113;28;20561;-74
2023/07/03 06:03:43;;;;;;;5.90;3.10;;;24.30;96.70;;;;;;5007148;28;20406;-73
2023/07/03 06:06:12;;;;;;;5.25;2.90;;;24.30;96.70;;;;;;5014702;28;20077;-71
2023/07/03 06:08:41;;;;;;;4.82;2.70;;;24.40;96.70;;;;;;5003637;28;20060;-71
2023/07/03 06:11:09;;;;;;;4.72;2.65;;;24.40;96.70;;;;;;5023854;28;20446;-71
2023/07/03 06:13:37;;;;;;;5.03;2.85;;;24.40;96.70;;;;;;5006299;28;20056;-70
2023/07/03 06:16:05;;;;;;;4.40;2.75;;;24.40;96.70;;;;;;5018488;28;20042;-71
2023/07/03 06:18:33;;;;;;;5.78;2.78;;;24.50;96.70;;;;;;5023433;28;20538;-71
2023/07/03 06:21:02;;;;;;;5.20;2.90;;;24.50;96.70;;;;;;5017029;28;20073;-71
2023/07/03 06:23:30;;;;;;;8.82;3.47;;;24.60;96.70;;;;;;5002169;28;20049;-71
2023/07/03 06:25:58;;;;;;;4.38;2.80;;;24.60;96.70;;;;;;5004943;28;20069;-71
2023/07/03 06:28:26;;;;;;;7.32;2.90;;;24.50;96.70;;;;;;5008782;28;20053;-71
2023/07/03 06:30:54;;;;;;;5.60;2.85;;;24.50;96.70;;;;;;5023799;28;20068;-71
2023/07/03 06:33:22;;;;;;;6.47;3.00;;;24.60;96.70;;;;;;5021554;28;20051;-71
2023/07/03 06:35:50;;;;;;;4.72;2.75;;;24.70;96.70;;;;;;5021107;28;20051;-70
2023/07/03 06:38:22;;;;;;;7.38;3.10;;;24.70;96.70;;;;;;5024183;28;20057;-71
2023/07/03 06:40:57;;;;;;;6.63;3.13;;;24.70;96.70;;;;;;5005865;28;20049;-71
2023/07/03 06:43:25;;;;;;;4.75;2.83;;;24.70;96.70;;;;;;5005753;28;20041;-71
2023/07/03 06:45:52;;;;;;;4.35;2.40;;;24.60;96.70;;;;;;5019023;28;20038;-71
2023/07/03 06:48:24;;;;;;;4.38;2.65;;;24.70;96.70;;;;;;5016782;28;20056;-71
2023/07/03 06:51:01;;;;;;;6.28;2.50;;;24.70;96.70;;;;;;5017140;28;20038;-71
2023/07/03 06:53:31;;;;;;;5.68;3.10;;;24.80;96.70;;;;;;5010354;28;20301;-71
2023/07/03 06:56:00;;;;;;;7.45;2.70;;;24.90;96.70;;;;;;4996585;28;20051;-71
2023/07/03 06:58:30;;;;;;;4.80;2.28;;;24.90;96.70;;;;;;4986792;28;20096;-72
2023/07/03 07:00:58;;;;;;;5.65;2.60;;;24.90;96.70;;;;;;4985683;28;20057;-72
2023/07/03 07:03:26;;;;;;;4.38;2.47;;;25.00;96.70;;;;;;4986843;28;20050;-72
2023/07/03 07:05:54;;;;;;;5.65;2.83;;;25.10;96.70;;;;;;5023442;28;20041;-76
2023/07/03 07:08:24;;;;;;;3.65;2.47;;;25.20;96.70;;;;;;5003321;28;20056;-75
2023/07/03 07:10:53;;;;;;;4.75;2.58;;;25.20;96.70;;;;;;4983219;28;20045;-73
2023/07/03 07:13:21;;;;;;;2.80;2.28;;;25.20;96.70;;;;;;5001680;28;20044;-75
2023/07/03 07:15:49;;;;;;;4.03;2.95;;;25.30;96.70;;;;;;4998828;28;20534;-72
2023/07/03 07:18:17;;;;;;;7.43;2.80;;;25.30;96.70;;;;;;5005587;28;20053;-71
2023/07/03 07:20:45;;;;;;;6.75;3.20;;;25.40;96.70;;;;;;5023354;28;20038;-72
2023/07/03 07:23:13;;;;;;;4.80;2.80;;;25.30;96.70;;;;;;4993786;28;20566;-73
2023/07/03 07:25:41;;;;;;;5.22;2.55;;;25.40;96.70;;;;;;5017926;28;20124;-76
2023/07/03 07:28:10;;;;;;;5.25;2.60;;;25.40;96.70;;;;;;5019059;28;20073;-80
2023/07/03 07:30:38;;;;;;;4.97;3.25;;;25.40;96.70;;;;;;5000924;28;20538;-76
2023/07/03 07:33:06;;;;;;;8.18;3.08;;;25.50;96.70;;;;;;4998521;28;20046;-79
2023/07/03 07:35:35;;;;;;;4.63;2.75;;;25.50;96.70;;;;;;4981052;28;20089;-72
2023/07/03 07:38:03;;;;;;;5.95;2.83;;;25.50;96.70;;;;;;4983564;28;20048;-74
2023/07/03 07:40:31;;;;;;;6.22;2.78;;;25.60;96.70;;;;;;4982837;28;20050;-76
2023/07/03 07:42:59;;;;;;;5.80;2.92;;;25.60;96.70;;;;;;4986363;28;20059;-76
2023/07/03 07:45:28;;;;;;;5.75;2.88;;;25.70;96.70;;;;;;4983334;28;20046;-72
2023/07/03 07:47:55;;;;;;;5.45;2.55;;;25.60;96.70;;;;;;4982242;28;20161;-72
2023/07/03 07:50:23;;;;;;;4.90;2.67;;;25.70;96.70;;;;;;4997461;28;20526;-74
2023/07/03 07:52:53;;;;;;;5.95;2.60;;;25.80;96.70;;;;;;4989198;28;20046;-75
2023/07/03 07:55:21;;;;;;;5.00;2.83;;;25.80;96.70;;;;;;4993352;28;20038;-75
2023/07/03 07:57:49;;;;;;;5.95;2.90;;;25.90;96.70;;;;;;4981527;28;20046;-71
2023/07/03 08:00:18;;;;;;;6.68;2.60;;;26.00;96.70;;;;;;5000770;28;20046;-75
2023/07/03 08:02:47;;;;;;;4.57;2.28;;;26.10;96.70;;;;;;5001479;28;20080;-76
2023/07/03 08:09:03;;;;;;;5.05;2.95;;;26.10;96.70;;;;;;4998592;28;20042;-75
2023/07/03 08:11:30;;;;;;;5.60;3.20;;;26.20;96.70;;;;;;5000369;28;20050;-74
2023/07/03 08:13:58;;;;;;;4.78;2.60;;;26.20;96.70;;;;;;4994862;28;20128;-75
2023/07/03 08:16:26;;;;;;;3.53;2.28;;;26.20;96.70;;;;;;4990899;28;20048;-71
2023/07/03 08:18:56;;;;;;;4.57;2.58;;;26.30;96.70;;;;;;4992444;28;20137;-75
2023/07/03 08:21:24;;;;;;;6.15;3.10;;;26.30;96.70;;;;;;4988313;28;20051;-74
2023/07/03 08:23:52;;;;;;;8.07;2.67;;;26.30;96.70;;;;;;4968314;28;20579;-74
2023/07/03 08:26:22;;;;;;;4.72;2.67;;;26.40;96.70;;;;;;4984848;28;20118;-74
2023/07/03 08:28:50;;;;;;;5.57;2.67;;;26.50;96.70;;;;;;4982889;28;20534;-75
2023/07/03 08:31:18;;;;;;;4.72;2.70;;;26.60;96.70;;;;;;4995323;28;20057;-75
2023/07/03 08:33:46;;;;;;;6.43;3.15;;;26.50;96.70;;;;;;5009685;28;20407;-75
2023/07/03 08:36:16;;;;;;;7.15;3.58;;;26.60;96.70;;;;;;5021179;28;20068;-76
2023/07/03 08:38:46;;;;;;;5.05;2.80;;;26.70;96.70;;;;;;5004983;28;20053;-75
2023/07/03 08:41:15;;;;;;;5.88;2.35;;;26.80;96.70;;;;;;5008692;28;20452;-75
2023/07/03 08:43:46;;;;;;;9.43;2.92;;;26.80;96.70;;;;;;4999750;28;20195;-75
2023/07/03 08:46:19;;;;;;;6.63;2.72;;;26.90;96.70;;;;;;4997426;28;20056;-73
2023/07/03 08:48:51;;;;;;;4.78;2.72;;;26.90;96.70;;;;;;5013444;28;20356;-74
2023/07/03 08:51:24;;;;;;;4.70;2.78;;;26.90;96.70;;;;;;5024179;28;20069;-71
2023/07/03 08:53:54;;;;;;;5.88;3.22;;;27.00;96.70;;;;;;5005456;28;20123;-71
2023/07/03 08:56:35;;;;;;;8.52;3.35;;;27.00;96.70;;;;;;4998692;28;20048;-71
2023/07/03 08:59:04;;;;;;;5.82;2.95;;;27.10;96.70;;;;;;5003228;28;20046;-71
2023/07/03 09:01:41;;;;;;;6.07;2.70;;;27.30;96.70;;;;;;4994619;28;20125;-75
2023/07/03 09:04:32;;;;;;;6.13;2.95;;;27.30;96.70;;;;;;4996076;28;20049;-74
2023/07/03 09:07:07;;;;;;;4.70;2.72;;;27.30;96.70;;;;;;4996772;28;20050;-74
2023/07/03 09:09:41;;;;;;;7.40;2.63;;;27.30;96.70;;;;;;5013420;28;20045;-74
2023/07/03 09:12:17;;;;;;;7.75;3.30;;;27.30;96.70;;;;;;5015218;28;20180;-71
2023/07/03 09:14:52;;;;;;;8.57;3.40;;;27.30;96.70;;;;;;5023171;28;20053;-73
2023/07/03 09:17:22;;;;;;;7.65;2.75;;;27.40;96.70;;;;;;5010101;28;20523;-73
2023/07/03 09:19:52;;;;;;;7.25;3.03;;;27.50;96.70;;;;;;5018856;28;20045;-74
2023/07/03 09:22:31;;;;;;;5.07;3.15;;;27.60;96.70;;;;;;5011169;28;20050;-75
2023/07/03 09:25:03;;;;;;;5.43;3.03;;;27.60;96.70;;;;;;5019566;28;20132;-73
2023/07/03 09:27:31;;;;;;;5.75;3.10;;;27.70;96.70;;;;;;4997116;28;20418;-73
2023/07/03 09:30:05;;;;;;;6.90;3.15;;;27.80;96.70;;;;;;4997640;28;20132;-71
2023/07/03 09:32:34;;;;;;;6.68;3.00;;;27.90;96.70;;;;;;5007624;28;20663;-71
2023/07/03 09:35:06;;;;;;;4.20;2.78;;;27.80;96.70;;;;;;5016386;28;20037;-71
2023/07/03 09:37:38;;;;;;;4.88;2.67;;;27.80;96.70;;;;;;5002524;28;20620;-71
2023/07/03 09:40:13;;;;;;;5.10;2.90;;;27.60;96.70;;;;;;5020194;28;20084;-71
2023/07/03 09:42:41;;;;;;;4.72;2.65;;;27.70;96.70;;;;;;5013030;28;20041;-71
2023/07/03 09:45:15;;;;;;;5.75;2.47;;;27.80;96.70;;;;;;5006836;28;20084;-74
2023/07/03 09:47:48;;;;;;;4.78;2.70;;;28.00;96.70;;;;;;5013919;28;20042;-75
2023/07/03 09:50:24;;;;;;;5.88;2.72;;;28.10;96.70;;;;;;4990400;28;20136;-75
2023/07/03 09:52:56;;;;;;;4.93;2.60;;;28.20;96.70;;;;;;4999160;28;20100;-74
2023/07/03 09:55:35;;;;;;;6.18;2.72;;;28.30;96.70;;;;;;5008360;28;20045;-71
2023/07/03 09:58:11;;;;;;;4.97;2.53;;;28.30;96.70;;;;;;5001417;28;20495;-72
2023/07/03 10:00:47;;;;;;;5.07;3.00;;;28.30;96.70;;;;;;5016328;28;20056;-72
2023/07/03 10:03:28;;;;;;;4.75;2.95;;;28.20;96.70;;;;;;5021338;28;20495;-71
2023/07/03 10:06:03;;;;;;;6.40;2.95;;;28.40;96.70;;;;;;5014907;28;20044;-71
2023/07/03 10:08:40;;;;;;;4.50;2.75;;;28.60;96.70;;;;;;5024147;28;20466;-70
2023/07/03 10:11:10;;;;;;;5.25;2.65;;;28.70;96.70;;;;;;5024552;28;20107;-71
2023/07/03 10:13:44;;;;;;;6.40;2.80;;;28.90;96.70;;;;;;5017732;28;20140;-71
2023/07/03 10:16:14;;;;;;;4.55;2.80;;;28.90;96.70;;;;;;5011841;28;20041;-71
2023/07/03 10:18:48;;;;;;;6.07;3.15;;;28.90;96.70;;;;;;5020601;28;20049;-73
2023/07/03 10:21:20;;;;;;;3.92;2.75;;;29.00;96.70;;;;;;5008427;28;21057;-72
2023/07/03 10:23:51;;;;;;;3.65;2.85;;;29.10;96.70;;;;;;5014378;28;20399;-71
2023/07/03 10:26:22;;;;;;;3.97;2.80;;;29.20;96.70;;;;;;5012072;28;20049;-71
2023/07/03 10:28:57;;;;;;;5.38;3.00;;;29.40;96.70;;;;;;5006472;28;20099;-71
2023/07/03 10:31:32;;;;;;;5.43;3.17;;;29.30;96.70;;;;;;5007171;28;20912;-73
2023/07/03 10:34:07;;;;;;;4.57;2.90;;;29.20;96.70;;;;;;5021780;28;20042;-73
2023/07/03 10:36:35;;;;;;;4.88;2.80;;;29.20;96.70;;;;;;5024305;28;20047;-70
2023/07/03 10:39:11;;;;;;;4.75;2.70;;;29.10;96.70;;;;;;5023806;28;20043;-71
2023/07/03 10:41:44;;;;;;;4.50;2.70;;;29.10;96.70;;;;;;5005871;28;20060;-71
2023/07/03 10:44:16;;;;;;;5.57;3.05;;;29.40;96.70;;;;;;5020159;28;20038;-71
2023/07/03 10:46:50;;;;;;;4.93;2.80;;;29.40;96.70;;;;;;5015871;28;20080;-71
2023/07/03 10:49:25;;;;;;;4.93;2.83;;;29.70;96.70;;;;;;5017309;28;20054;-71
2023/07/03 10:52:02;;;;;;;3.95;2.47;;;30.00;96.70;;;;;;5024273;28;20080;-71
2023/07/03 10:54:37;;;;;;;6.43;3.20;;;30.20;96.70;;;;;;5024218;28;20045;-71
2023/07/03 10:57:08;;;;;;;4.43;2.88;;;30.50;96.70;;;;;;5000244;28;20476;-71
2023/07/03 10:59:41;;;;;;;4.18;2.72;;;30.80;96.70;;;;;;5023218;28;20053;-71
2023/07/03 11:02:17;;;;;;;5.65;3.20;;;30.70;96.70;;;;;;5020773;28;20124;-71
2023/07/03 11:04:59;;;;;;;5.05;2.85;;;30.90;96.70;;;;;;5023794;28;20052;-71
2023/07/03 11:07:36;;;;;;;3.95;3.10;;;30.90;96.70;;;;;;5004832;28;20152;-71
2023/07/03 11:10:13;;;;;;;4.43;2.85;;;30.90;96.70;;;;;;5006038;28;20128;-71
2023/07/03 11:12:48;;;;;;;4.22;2.47;;;31.00;96.70;;;;;;5023660;28;20474;-71
2023/07/03 11:15:27;;;;;;;3.50;2.70;;;31.20;96.70;;;;;;5014336;28;20451;-71
2023/07/03 11:18:03;;;;;;;4.85;2.55;;;31.20;96.70;;;;;;5006671;28;20053;-71
2023/07/03 11:20:40;;;;;;;4.50;2.60;;;31.20;96.70;;;;;;5005142;28;20576;-72
2023/07/03 11:23:19;;;;;;;3.33;2.85;;;31.20;96.70;;;;;;5004224;28;20108;-71
2023/07/03 11:25:53;;;;;;;5.57;2.92;;;31.10;96.70;;;;;;4999062;28;20053;-71
2023/07/03 11:28:30;;;;;;;3.70;2.45;;;31.20;96.70;;;;;;5013093;28;20064;-71
2023/07/03 11:31:01;;;;;;;4.05;2.95;;;31.20;96.70;;;;;;5020515;28;20041;-72
2023/07/03 11:33:31;;;;;;;3.42;2.70;;;31.20;96.70;;;;;;5022379;28;20061;-71
2023/07/03 11:36:02;;;;;;;3.88;2.72;;;31.20;96.70;;;;;;5006923;28;20146;-71
2023/07/03 11:38:30;;;;;;;5.10;2.75;;;31.40;96.70;;;;;;5005157;28;20514;-71
2023/07/03 11:41:08;;;;;;;3.22;2.70;;;31.50;96.70;;;;;;5022648;28;20038;-71
2023/07/03 11:43:56;;;;;;;3.60;2.88;;;31.70;96.70;;;;;;5020310;28;20366;-71
2023/07/03 11:46:26;;;;;;;4.13;2.67;;;31.90;96.70;;;;;;5009821;28;20125;-72
2023/07/03 11:48:56;;;;;;;4.88;3.08;;;31.70;96.70;;;;;;5021740;28;20049;-70
2023/07/03 11:51:36;;;;;;;3.95;3.05;;;31.70;96.70;;;;;;5005200;28;20092;-71
2023/07/03 11:54:17;;;;;;;5.65;3.53;;;31.90;96.70;;;;;;4997549;28;20045;-71
2023/07/03 11:56:50;;;;;;;4.40;2.97;;;32.10;96.70;;;;;;4997713;28;20045;-71
2023/07/03 11:59:36;;;;;;;3.55;2.90;;;32.10;96.70;;;;;;5000481;28;20128;-71
2023/07/03 12:02:22;;;;;;;;;;;32.10;96.70;;;;;;4972268;28;20053;-71
2023/07/03 12:04:51;;;;;;;4.88;3.67;;;32.20;96.70;;;;;;5015419;28;19979;-71
2023/07/03 12:07:48;;;;;;;4.80;3.17;;;32.20;96.70;;;;;;5011817;28;20513;-72
2023/07/03 12:10:55;;;;;;;4.63;3.60;;;32.40;96.70;;;;;;5018932;28;20073;-72
2023/07/03 12:13:53;;;;;;;5.97;3.55;;;32.40;96.70;;;;;;5022809;28;20037;-71
2023/07/03 12:16:25;;;;;;;5.32;3.53;;;32.50;96.70;;;;;;5022561;28;20542;-71
2023/07/03 12:19:02;;;;;;;5.32;3.53;;;32.30;96.70;;;;;;5019844;28;20045;-71
2023/07/03 12:21:49;;;;;;;5.72;3.80;;;32.30;96.70;;;;;;4989428;28;20053;-71
2023/07/03 12:24:27;;;;;;;6.38;3.67;;;32.20;96.70;;;;;;5019547;28;20045;-71
2023/07/03 12:27:00;;;;;;;5.78;3.55;;;32.30;96.70;;;;;;4982512;28;20049;-71
2023/07/03 12:29:32;;;;;;;7.38;3.20;;;32.40;96.70;;;;;;5002154;28;20053;-71
2023/07/03 12:32:07;;;;;;;5.72;3.45;;;32.50;96.70;;;;;;5018198;28;20088;-70
2023/07/03 12:34:37;;;;;;;7.30;3.53;;;32.30;96.70;;;;;;5001888;28;20049;-71
2023/07/03 12:37:08;;;;;;;5.53;3.30;;;32.20;96.70;;;;;;5008262;28;20050;-71
2023/07/03 12:39:36;;;;;;;5.68;3.20;;;31.80;96.70;;;;;;4999628;28;20076;-71
2023/07/03 12:42:09;;;;;;;5.10;3.42;;;31.90;96.70;;;;;;4998974;28;20033;-71
2023/07/03 12:44:39;;;;;;;7.53;3.60;;;32.10;96.70;;;;;;5026216;28;20042;-71
2023/07/03 12:47:09;;;;;;;6.85;3.47;;;32.20;96.70;;;;;;5023810;28;20099;-71
2023/07/03 12:50:01;;;;;;;6.60;3.67;;;32.20;96.70;;;;;;5000929;28;20129;-71
2023/07/03 12:52:31;;;;;;;6.15;4.32;;;32.30;96.70;;;;;;5016006;28;20439;-71
2023/07/03 12:55:00;;;;;;;8.93;4.20;;;32.20;96.70;;;;;;5017874;28;20128;-71
2023/07/03 12:57:37;;;;;;;6.88;3.90;;;32.20;96.70;;;;;;4992982;28;20084;-71
2023/07/03 13:00:15;;;;;;;6.15;3.78;;;32.00;96.70;;;;;;5001842;28;20091;-71
2023/07/03 13:02:44;;;;;;;8.63;4.38;;;32.10;96.70;;;;;;5008027;28;20049;-71
2023/07/03 13:05:17;;;;;;;6.57;4.00;;;32.30;96.70;;;;;;5025684;28;20045;-71
2023/07/03 13:07:50;;;;;;;5.13;4.03;;;32.50;96.70;;;;;;5000099;28;20046;-71
2023/07/03 13:10:19;;;;;;;6.38;4.38;;;32.50;96.70;;;;;;4978250;28;20128;-71
2023/07/03 13:13:04;;;;;;;5.10;4.00;;;32.50;96.70;;;;;;5018700;28;20330;-71
2023/07/03 13:15:35;;;;;;;6.50;4.22;;;32.40;96.70;;;;;;5020240;28;20109;-71
2023/07/03 13:18:06;;;;;;;7.65;4.20;;;32.50;96.70;;;;;;5018576;28;20053;-71
2023/07/03 13:20:34;;;;;;;6.13;4.05;;;32.90;96.70;;;;;;5005957;28;21641;-71
2023/07/03 13:23:05;;;;;;;4.75;3.72;;;32.90;96.70;;;;;;4998377;28;20045;-71
2023/07/03 13:25:35;;;;;;;5.43;4.00;;;32.80;96.70;;;;;;5013690;28;20639;-71
2023/07/03 13:28:07;;;;;;;6.95;4.20;;;32.90;96.70;;;;;;5019216;28;20495;-71
2023/07/03 13:30:38;;;;;;;8.05;4.50;;;32.90;96.70;;;;;;4986394;28;20050;-71
2023/07/03 13:33:08;;;;;;;7.22;5.03;;;32.90;96.70;;;;;;5018533;28;20554;-71
2023/07/03 13:35:40;;;;;;;8.95;5.18;;;32.80;96.70;;;;;;5007616;28;20099;-71
2023/07/03 13:38:20;;;;;;;8.35;4.82;;;32.80;96.70;;;;;;4998607;28;20042;-71
2023/07/03 13:40:51;;;;;;;8.43;4.63;;;32.90;96.70;;;;;;5022530;28;20050;-71
2023/07/03 13:43:21;;;;;;;8.05;4.90;;;33.30;96.70;;;;;;5023055;28;20076;-71
2023/07/03 13:45:54;;;;;;;7.47;4.97;;;33.40;96.70;;;;;;5011199;28;20049;-71
2023/07/03 13:48:23;;;;;;;5.90;4.68;;;33.30;96.70;;;;;;5000397;28;20514;-71
2023/07/03 13:50:52;;;;;;;8.50;4.65;;;33.30;96.70;;;;;;5003393;28;20057;-71
2023/07/03 13:53:21;;;;;;;7.22;4.63;;;33.70;96.70;;;;;;5011537;28;20041;-70
2023/07/03 13:55:49;;;;;;;8.63;4.65;;;33.40;96.70;;;;;;5004264;28;20072;-72
2023/07/03 13:58:18;;;;;;;8.90;4.55;;;33.40;96.70;;;;;;5002393;28;20053;-72
2023/07/03 14:00:46;;;;;;;7.90;4.85;;;33.20;96.70;;;;;;5023916;28;20482;-71
2023/07/03 14:03:16;;;;;;;10.02;4.97;;;33.20;96.70;;;;;;5020055;28;20124;-72
2023/07/03 14:05:44;;;;;;;9.32;4.97;;;33.50;96.70;;;;;;5002512;28;20041;-71
2023/07/03 14:08:12;;;;;;;8.15;4.70;;;33.50;96.70;;;;;;4997338;28;20123;-70
2023/07/03 14:10:40;;;;;;;5.13;4.20;;;33.40;96.70;;;;;;5008695;28;20053;-70
2023/07/03 14:13:09;;;;;;;8.43;4.43;;;33.60;96.70;;;;;;5008797;28;20087;-71
2023/07/03 14:15:37;;;;;;;9.05;4.80;;;33.80;96.70;;;;;;5004623;28;20151;-71
2023/07/03 14:18:05;;;;;;;9.48;4.97;;;33.90;96.70;;;;;;4989773;28;20042;-72
2023/07/03 14:20:35;;;;;;;7.35;4.80;;;34.00;96.70;;;;;;5024307;28;20060;-72
2023/07/03 14:23:05;;;;;;;9.45;4.72;;;34.00;96.70;;;;;;5012904;28;20606;-73
2023/07/03 14:25:33;;;;;;;6.47;4.20;;;34.10;96.70;;;;;;5006403;28;20046;-73
2023/07/03 14:28:01;;;;;;;6.80;4.25;;;34.20;96.70;;;;;;5024214;28;20133;-73
2023/07/03 14:30:29;;;;;;;5.13;4.38;;;34.50;96.70;;;;;;5004108;28;20120;-73
2023/07/03 14:32:57;;;;;;;7.03;4.75;;;34.20;96.70;;;;;;5017066;28;20078;-72
2023/07/03 14:35:25;;;;;;;6.50;4.57;;;34.40;96.70;;;;;;5023994;28;20044;-73
2023/07/03 14:37:55;;;;;;;8.00;4.68;;;34.70;96.70;;;;;;5006125;28;20045;-73
2023/07/03 14:40:23;;;;;;;6.53;4.43;;;34.90;96.70;;;;;;5024447;28;20091;-72
2023/07/03 14:42:52;;;;;;;6.10;4.18;;;34.80;96.70;;;;;;5003886;28;20455;-73
2023/07/03 14:45:20;;;;;;;8.68;5.18;;;34.80;96.70;;;;;;5022775;28;20048;-73
2023/07/03 14:47:48;;;;;;;6.93;4.60;;;34.70;96.70;;;;;;5023972;28;20683;-72
2023/07/03 14:50:16;;;;;;;7.78;4.55;;;34.80;96.70;;;;;;5004708;28;20557;-73
2023/07/03 14:52:46;;;;;;;6.88;4.35;;;35.00;96.70;;;;;;5021114;28;20529;-73
2023/07/03 14:55:17;;;;;;;6.78;4.25;;;34.90;96.70;;;;;;5009869;28;20042;-75
2023/07/03 14:57:45;;;;;;;8.32;4.93;;;35.00;96.70;;;;;;5010376;28;20050;-74
2023/07/03 15:00:14;;;;;;;6.45;4.45;;;35.10;96.70;;;;;;5017981;28;20734;-72
2023/07/03 15:02:45;;;;;;;5.15;3.95;;;35.20;96.70;;;;;;4981068;28;20046;-71
2023/07/03 15:05:14;;;;;;;6.97;4.40;;;35.40;96.70;;;;;;5012915;28;20096;-72
2023/07/03 15:07:42;;;;;;;8.07;4.53;;;35.10;96.70;;;;;;5019035;28;20133;-72
2023/07/03 15:10:11;;;;;;;7.38;4.60;;;35.10;96.70;;;;;;5023958;28;20055;-71
2023/07/03 15:12:41;;;;;;;8.25;4.75;;;35.50;96.70;;;;;;5007842;28;20050;-71
2023/07/03 15:15:09;;;;;;;8.35;4.60;;;35.80;96.70;;;;;;5009050;28;20072;-72
2023/07/03 15:17:37;;;;;;;6.55;4.20;;;36.00;96.70;;;;;;5008057;28;20118;-75
2023/07/03 15:20:06;;;;;;;6.35;4.22;;;35.60;96.70;;;;;;5013429;28;20072;-71
2023/07/03 15:22:34;;;;;;;6.60;4.30;;;35.50;96.70;;;;;;4990294;28;20041;-71
2023/07/03 15:25:02;;;;;;;7.15;4.72;;;35.90;96.70;;;;;;5007994;28;20503;-71
2023/07/03 15:27:30;;;;;;;6.45;4.35;;;36.10;96.70;;;;;;5020288;28;20514;-71
2023/07/03 15:30:00;;;;;;;8.57;4.68;;;35.80;96.70;;;;;;5013056;28;20080;-71
2023/07/03 15:32:28;;;;;;;6.80;4.93;;;36.00;96.70;;;;;;5022634;28;20081;-71
2023/07/03 15:34:56;;;;;;;8.30;5.07;;;35.80;96.70;;;;;;5002428;28;20065;-71
2023/07/03 15:37:24;;;;;;;9.88;4.53;;;35.70;96.70;;;;;;5016435;28;20049;-71
2023/07/03 15:39:52;;;;;;;7.93;4.97;;;35.70;96.70;;;;;;4990911;28;20507;-71
2023/07/03 15:42:20;;;;;;;8.63;4.55;;;35.90;96.70;;;;;;5014261;28;20047;-73
2023/07/03 15:44:55;;;;;;;6.53;4.40;;;36.00;96.70;;;;;;5010190;28;20499;-71
2023/07/03 15:47:24;;;;;;;6.53;4.18;;;36.20;96.70;;;;;;5012031;28;20041;-71
2023/07/03 15:49:56;;;;;;;5.72;4.80;;;35.80;96.70;;;;;;5003829;28;20060;-71
2023/07/03 15:52:24;;;;;;;7.43;4.50;;;36.00;96.70;;;;;;5002829;28;20049;-70
2023/07/03 15:54:52;;;;;;;9.88;4.93;;;35.60;96.70;;;;;;5010603;28;20042;-70
2023/07/03 15:57:21;;;;;;;6.18;4.53;;;35.30;96.70;;;;;;5017451;28;20046;-70
2023/07/03 15:59:49;;;;;;;8.05;5.00;;;35.50;96.70;;;;;;5017934;28;20596;-71
2023/07/03 16:02:17;;;;;;;6.95;4.32;;;35.70;96.70;;;;;;5011347;28;20037;-70
2023/07/03 16:04:46;;;;;;;8.48;4.38;;;35.70;96.70;;;;;;5022125;28;20046;-70
2023/07/03 16:07:14;;;;;;;9.10;4.60;;;36.10;96.70;;;;;;4996694;28;20048;-70
2023/07/03 16:09:42;;;;;;;6.88;4.30;;;36.20;96.70;;;;;;5002846;28;20069;-71
2023/07/03 16:12:10;;;;;;;6.05;4.22;;;36.30;96.70;;;;;;5020387;28;20069;-70
2023/07/03 16:14:38;;;;;;;6.75;4.63;;;36.00;96.70;;;;;;5012962;28;20037;-70
2023/07/03 16:17:06;;;;;;;9.85;4.78;;;35.60;96.70;;;;;;4986649;28;20586;-71
2023/07/03 16:19:34;;;;;;;7.13;4.43;;;35.70;96.70;;;;;;4985752;28;20432;-70
2023/07/03 16:22:04;;;;;;;6.47;4.47;;;35.90;96.70;;;;;;4993504;28;20531;-70
2023/07/03 16:24:32;;;;;;;8.93;5.28;;;36.50;96.70;;;;;;5013696;28;20054;-70
2023/07/03 16:27:00;;;;;;;6.93;4.00;;;36.70;96.70;;;;;;5010354;28;20042;-70
2023/07/03 16:29:28;;;;;;;7.00;4.82;;;36.60;96.70;;;;;;4991929;28;20069;-70
2023/07/03 16:31:56;;;;;;;8.00;4.30;;;37.00;96.70;;;;;;5014167;28;20057;-70
2023/07/03 16:34:25;;;;;;;6.15;4.25;;;37.20;96.70;;;;;;5003659;28;20085;-70
2023/07/03 16:36:53;;;;;;;8.20;4.55;;;37.60;96.70;;;;;;4995661;28;20507;-72
2023/07/03 16:39:22;;;;;;;6.63;4.22;;;37.50;96.70;;;;;;5005785;28;20125;-76
2023/07/03 16:41:50;;;;;;;7.55;4.88;;;37.50;96.70;;;;;;5004893;28;20553;-76
2023/07/03 16:44:18;;;;;;;6.93;4.10;;;37.80;96.70;;;;;;5012894;28;20644;-75
2023/07/03 16:46:46;;;;;;;6.47;4.32;;;38.10;96.70;;;;;;5000526;28;20056;-75
2023/07/03 16:49:14;;;;;;;8.15;4.22;;;38.40;96.70;;;;;;5015674;28;20522;-76
2023/07/03 16:51:42;;;;;;;5.82;4.40;;;38.30;96.70;;;;;;5015658;28;20763;-74
2023/07/03 16:54:10;;;;;;;6.53;4.30;;;38.00;96.70;;;;;;5016096;28;20045;-71
2023/07/03 16:56:39;;;;;;;5.88;4.25;;;38.10;96.70;;;;;;5022232;28;20046;-70
2023/07/03 16:59:07;;;;;;;9.02;4.15;;;38.20;96.70;;;;;;5018758;28;20056;-70
2023/07/03 17:01:35;;;;;;;7.18;3.80;;;37.90;96.70;;;;;;4991683;28;20034;-70
2023/07/03 17:04:03;;;;;;;6.28;4.10;;;38.10;96.70;;;;;;5002845;28;20462;-72
2023/07/03 17:06:34;;;;;;;5.72;3.90;;;37.80;96.70;;;;;;5020835;28;20132;-72
2023/07/03 17:09:03;;;;;;;5.63;3.55;;;37.70;96.70;;;;;;5008347;28;20048;-72
2023/07/03 17:11:31;;;;;;;6.65;4.18;;;37.60;96.70;;;;;;5022339;28;20068;-72
2023/07/03 17:14:01;;;;;;;7.72;3.88;;;37.20;96.70;;;;;;5022950;28;20047;-71
2023/07/03 17:16:30;;;;;;;6.15;3.85;;;37.60;96.70;;;;;;5025965;28;20458;-71
2023/07/03 17:18:58;;;;;;;8.55;4.05;;;37.70;96.70;;;;;;5023643;28;20042;-71
2023/07/03 17:21:26;;;;;;;8.07;3.70;;;37.80;96.70;;;;;;5010983;28;20062;-71